createdAt,value
2019-01-10T00:00:11.034Z,930.02
2019-01-10T00:01:11.053Z,930.01
2019-01-10T00:02:11.183Z,930.01
2019-01-10T00:03:11.249Z,930.00
2019-01-10T00:04:11.097Z,930.01
2019-01-10T00:05:11.118Z,930.04
2019-01-10T00:06:11.126Z,930.01
2019-01-10T00:07:11.146Z,930.05
2019-01-10T00:08:11.379Z,930.07
2019-01-10T00:09:11.211Z,930.05
2019-01-10T00:10:11.201Z,930.08
2019-01-10T00:11:11.225Z,930.12
2019-01-10T00:12:11.247Z,930.12
2019-01-10T00:13:11.356Z,930.09
2019-01-10T00:14:11.284Z,930.13
2019-01-10T00:15:11.298Z,930.17
2019-01-10T00:16:11.328Z,930.19
2019-01-10T00:17:11.363Z,930.20
2019-01-10T00:18:11.468Z,930.22
2019-01-10T00:19:11.366Z,930.22
2019-01-10T00:20:11.400Z,930.28
2019-01-10T00:21:11.409Z,930.29
2019-01-10T00:22:11.445Z,930.33
2019-01-10T00:23:11.485Z,930.34
2019-01-10T00:24:11.455Z,930.28
2019-01-10T00:25:11.473Z,930.27
2019-01-10T00:26:11.553Z,930.26
2019-01-10T00:27:11.531Z,930.26
2019-01-10T00:28:11.612Z,930.29
2019-01-10T00:29:11.559Z,930.29
2019-01-10T00:30:11.549Z,930.32
2019-01-10T00:31:11.591Z,930.38
2019-01-10T00:32:11.575Z,930.34
2019-01-10T00:33:11.709Z,930.39
2019-01-10T00:34:11.669Z,930.45
2019-01-10T00:35:11.699Z,930.45
2019-01-10T00:36:11.675Z,930.47
2019-01-10T00:37:11.706Z,930.51
2019-01-10T00:38:11.746Z,930.52
2019-01-10T00:39:11.714Z,930.52
2019-01-10T00:40:11.747Z,930.51
2019-01-10T00:41:11.773Z,930.47
2019-01-10T00:42:11.761Z,930.54
2019-01-10T00:43:11.796Z,930.51
2019-01-10T00:44:11.852Z,930.52
2019-01-10T00:45:11.821Z,930.51
2019-01-10T00:46:11.841Z,930.51
2019-01-10T00:47:11.856Z,930.52
2019-01-10T00:48:11.871Z,930.54
2019-01-10T00:49:11.894Z,930.55
2019-01-10T00:50:12.003Z,930.56
2019-01-10T00:51:11.923Z,930.55
2019-01-10T00:52:11.928Z,930.57
2019-01-10T00:53:11.965Z,930.55
2019-01-10T00:54:11.952Z,930.61
2019-01-10T00:55:12.137Z,930.62
2019-01-10T00:56:11.997Z,930.55
2019-01-10T00:57:12.020Z,930.60
2019-01-10T00:58:12.040Z,930.58
2019-01-10T00:59:12.050Z,930.60
2019-01-10T01:00:12.132Z,930.62
2019-01-10T01:01:12.083Z,930.64
2019-01-10T01:02:12.142Z,930.60
2019-01-10T01:03:12.121Z,930.64
2019-01-10T01:04:12.134Z,930.63
2019-01-10T01:05:12.152Z,930.61
2019-01-10T01:06:12.169Z,930.61
2019-01-10T01:07:12.328Z,930.63
2019-01-10T01:08:12.207Z,930.64
2019-01-10T01:09:12.237Z,930.63
2019-01-10T01:10:12.237Z,930.69
2019-01-10T01:11:12.270Z,930.70
2019-01-10T01:12:12.374Z,930.73
2019-01-10T01:13:12.300Z,930.74
2019-01-10T01:14:12.305Z,930.76
2019-01-10T01:15:12.327Z,930.73
2019-01-10T01:16:12.338Z,930.72
2019-01-10T01:17:12.454Z,930.70
2019-01-10T01:18:12.391Z,930.73
2019-01-10T01:19:12.379Z,930.66
2019-01-10T01:20:12.397Z,930.65
2019-01-10T01:21:12.426Z,930.65
2019-01-10T01:22:12.555Z,930.64
2019-01-10T01:23:12.469Z,930.68
2019-01-10T01:24:14.142Z,930.64
2019-01-10T01:25:12.493Z,930.66
2019-01-10T01:26:12.515Z,930.67
2019-01-10T01:27:12.622Z,930.69
2019-01-10T01:28:12.546Z,930.65
2019-01-10T01:29:12.570Z,930.67
2019-01-10T01:30:12.591Z,930.72
2019-01-10T01:31:12.607Z,930.71
2019-01-10T01:32:12.712Z,930.66
2019-01-10T01:33:12.635Z,930.67
2019-01-10T01:34:12.666Z,930.65
2019-01-10T01:35:12.658Z,930.67
2019-01-10T01:36:12.689Z,930.65
2019-01-10T01:37:12.739Z,930.67
2019-01-10T01:38:12.767Z,930.64
2019-01-10T01:39:12.754Z,930.59
2019-01-10T01:40:12.759Z,930.55
2019-01-10T01:41:12.767Z,930.54
2019-01-10T01:42:12.876Z,930.56
2019-01-10T01:43:12.797Z,930.55
2019-01-10T01:44:12.839Z,930.50
2019-01-10T01:45:12.825Z,930.48
2019-01-10T01:46:12.846Z,930.50
2019-01-10T01:47:12.915Z,930.50
2019-01-10T01:48:12.881Z,930.47
2019-01-10T01:49:12.914Z,930.51
2019-01-10T01:50:12.935Z,930.48
2019-01-10T01:51:12.980Z,930.45
2019-01-10T01:52:12.937Z,930.46
2019-01-10T01:53:13.061Z,930.43
2019-01-10T01:54:12.970Z,930.49
2019-01-10T01:55:13.017Z,930.45
2019-01-10T01:56:13.012Z,930.45
2019-01-10T01:57:13.020Z,930.41
2019-01-10T01:58:13.221Z,930.41
2019-01-10T01:59:13.057Z,930.40
2019-01-10T02:00:13.092Z,930.37
2019-01-10T02:01:13.113Z,930.35
2019-01-10T02:02:13.122Z,930.28
2019-01-10T02:03:13.187Z,930.29
2019-01-10T02:04:13.164Z,930.29
2019-01-10T02:05:13.160Z,930.26
2019-01-10T02:06:13.183Z,930.26
2019-01-10T02:07:13.193Z,930.24
2019-01-10T02:08:13.226Z,930.19
2019-01-10T02:09:13.390Z,930.23
2019-01-10T02:10:13.260Z,930.19
2019-01-10T02:11:13.291Z,930.18
2019-01-10T02:12:13.280Z,930.18
2019-01-10T02:13:16.911Z,930.18
2019-01-10T02:14:13.371Z,930.20
2019-01-10T02:15:14.368Z,930.16
2019-01-10T02:16:13.353Z,930.14
2019-01-10T02:17:13.476Z,930.14
2019-01-10T02:18:13.381Z,930.13
2019-01-10T02:19:13.414Z,930.16
2019-01-10T02:20:13.428Z,930.17
2019-01-10T02:21:13.433Z,930.18
2019-01-10T02:22:13.545Z,930.17
2019-01-10T02:23:13.492Z,930.15
2019-01-10T02:24:13.488Z,930.17
2019-01-10T02:25:13.500Z,930.13
2019-01-10T02:26:13.510Z,930.14
2019-01-10T02:27:13.676Z,930.14
2019-01-10T02:28:13.584Z,930.09
2019-01-10T02:29:13.592Z,930.06
2019-01-10T02:30:13.635Z,930.03
2019-01-10T02:31:13.606Z,930.01
2019-01-10T02:32:13.771Z,929.98
2019-01-10T02:33:13.623Z,929.95
2019-01-10T02:34:13.656Z,929.91
2019-01-10T02:35:13.688Z,929.90
2019-01-10T02:36:13.685Z,929.84
2019-01-10T02:37:13.750Z,929.87
2019-01-10T02:38:13.817Z,929.87
2019-01-10T02:39:13.743Z,929.83
2019-01-10T02:40:13.754Z,929.85
2019-01-10T02:41:13.782Z,929.86
2019-01-10T02:42:13.790Z,929.84
2019-01-10T02:43:13.900Z,929.81
2019-01-10T02:44:13.836Z,929.79
2019-01-10T02:45:13.889Z,929.79
2019-01-10T02:46:13.867Z,929.76
2019-01-10T02:47:13.926Z,929.74
2019-01-10T02:48:14.008Z,929.71
2019-01-10T02:49:13.913Z,929.68
2019-01-10T02:50:13.916Z,929.66
2019-01-10T02:51:13.940Z,929.63
2019-01-10T02:52:13.961Z,929.63
2019-01-10T02:53:13.971Z,929.60
2019-01-10T02:54:14.109Z,929.57
2019-01-10T02:55:14.032Z,929.60
2019-01-10T02:56:14.029Z,929.60
2019-01-10T02:57:14.041Z,929.60
2019-01-10T02:58:14.066Z,929.60
2019-01-10T02:59:14.195Z,929.58
2019-01-10T03:00:14.140Z,929.57
2019-01-10T03:01:14.101Z,929.56
2019-01-10T03:02:14.141Z,929.56
2019-01-10T03:03:14.128Z,929.49
2019-01-10T03:04:14.216Z,929.50
2019-01-10T03:05:14.195Z,929.49
2019-01-10T03:06:14.196Z,929.45
2019-01-10T03:07:14.216Z,929.43
2019-01-10T03:08:14.224Z,929.43
2019-01-10T03:09:14.344Z,929.40
2019-01-10T03:10:14.262Z,929.40
2019-01-10T03:11:14.282Z,929.36
2019-01-10T03:12:14.283Z,929.32
2019-01-10T03:13:14.319Z,929.31
2019-01-10T03:14:14.391Z,929.31
2019-01-10T03:15:14.335Z,929.34
2019-01-10T03:16:14.408Z,929.29
2019-01-10T03:17:14.363Z,929.28
2019-01-10T03:18:14.384Z,929.27
2019-01-10T03:19:14.499Z,929.29
2019-01-10T03:20:14.424Z,929.25
2019-01-10T03:21:14.456Z,929.26
2019-01-10T03:22:14.465Z,929.25
2019-01-10T03:23:14.484Z,929.27
2019-01-10T03:24:14.588Z,929.24
2019-01-10T03:25:14.511Z,929.22
2019-01-10T03:26:14.538Z,929.19
2019-01-10T03:27:14.549Z,929.21
2019-01-10T03:28:14.555Z,929.21
2019-01-10T03:29:14.715Z,929.22
2019-01-10T03:30:14.587Z,929.18
2019-01-10T03:31:14.593Z,929.16
2019-01-10T03:32:14.622Z,929.15
2019-01-10T03:33:14.642Z,929.15
2019-01-10T03:34:14.694Z,929.12
2019-01-10T03:35:14.664Z,929.09
2019-01-10T03:36:14.680Z,929.07
2019-01-10T03:37:14.753Z,929.07
2019-01-10T03:38:14.808Z,929.06
2019-01-10T03:39:14.834Z,929.06
2019-01-10T03:40:14.758Z,929.06
2019-01-10T03:41:14.780Z,929.02
2019-01-10T03:42:14.776Z,929.01
2019-01-10T03:43:14.796Z,929.04
2019-01-10T03:44:14.874Z,929.05
2019-01-10T03:45:14.826Z,929.03
2019-01-10T03:46:14.849Z,929.02
2019-01-10T03:47:14.871Z,929.02
2019-01-10T03:48:15.052Z,929.00
2019-01-10T03:49:14.888Z,929.01
2019-01-10T03:50:14.911Z,929.03
2019-01-10T03:51:14.935Z,929.02
2019-01-10T03:52:14.951Z,928.99
2019-01-10T03:53:15.172Z,929.02
2019-01-10T03:54:14.991Z,929.01
2019-01-10T03:55:15.010Z,928.99
2019-01-10T03:56:15.023Z,928.99
2019-01-10T03:57:15.039Z,928.98
2019-01-10T03:58:15.187Z,928.94
2019-01-10T03:59:15.053Z,928.94
2019-01-10T04:00:15.077Z,928.92
2019-01-10T04:01:15.095Z,928.90
2019-01-10T04:02:15.106Z,928.87
2019-01-10T04:03:15.179Z,928.82
2019-01-10T04:04:15.154Z,928.80
2019-01-10T04:05:15.160Z,928.78
2019-01-10T04:06:15.233Z,928.74
2019-01-10T04:07:15.197Z,928.70
2019-01-10T04:08:15.322Z,928.67
2019-01-10T04:09:15.236Z,928.68
2019-01-10T04:10:15.265Z,928.66
2019-01-10T04:11:15.268Z,928.67
2019-01-10T04:12:15.294Z,928.67
2019-01-10T04:13:15.354Z,928.65
2019-01-10T04:14:15.306Z,928.62
2019-01-10T04:15:15.332Z,928.63
2019-01-10T04:16:15.352Z,928.56
2019-01-10T04:17:15.375Z,928.55
2019-01-10T04:18:15.437Z,928.50
2019-01-10T04:19:15.385Z,928.47
2019-01-10T04:20:15.455Z,928.44
2019-01-10T04:21:17.375Z,928.43
2019-01-10T04:22:15.466Z,928.42
2019-01-10T04:23:15.521Z,928.40
2019-01-10T04:24:15.475Z,928.41
2019-01-10T04:25:15.584Z,928.40
2019-01-10T04:26:15.504Z,928.41
2019-01-10T04:27:15.516Z,928.38
2019-01-10T04:28:15.528Z,928.36
2019-01-10T04:29:15.552Z,928.37
2019-01-10T04:30:15.821Z,928.36
2019-01-10T04:31:15.581Z,928.34
2019-01-10T04:32:15.615Z,928.33
2019-01-10T04:33:15.627Z,928.33
2019-01-10T04:34:15.656Z,928.34
2019-01-10T04:35:15.715Z,928.29
2019-01-10T04:36:15.666Z,928.27
2019-01-10T04:37:15.777Z,928.28
2019-01-10T04:38:15.698Z,928.24
2019-01-10T04:39:15.724Z,928.27
2019-01-10T04:40:15.761Z,928.27
2019-01-10T04:41:15.761Z,928.29
2019-01-10T04:42:15.829Z,928.29
2019-01-10T04:43:15.801Z,928.29
2019-01-10T04:44:15.813Z,928.31
2019-01-10T04:45:15.836Z,928.35
2019-01-10T04:46:15.953Z,928.36
2019-01-10T04:47:15.867Z,928.38
2019-01-10T04:48:15.884Z,928.38
2019-01-10T04:49:15.872Z,928.38
2019-01-10T04:50:15.923Z,928.42
2019-01-10T04:51:16.120Z,928.43
2019-01-10T04:52:15.934Z,928.43
2019-01-10T04:53:15.951Z,928.47
2019-01-10T04:54:15.992Z,928.45
2019-01-10T04:55:16.010Z,928.44
2019-01-10T04:56:16.143Z,928.49
2019-01-10T04:57:16.002Z,928.46
2019-01-10T04:58:16.022Z,928.47
2019-01-10T04:59:16.044Z,928.50
2019-01-10T05:00:16.082Z,928.50
2019-01-10T05:01:16.126Z,928.48
2019-01-10T05:02:18.401Z,928.48
2019-01-10T05:03:16.132Z,928.46
2019-01-10T05:04:16.122Z,928.48
2019-01-10T05:05:16.148Z,928.48
2019-01-10T05:06:16.262Z,928.51
2019-01-10T05:07:16.207Z,928.49
2019-01-10T05:08:16.196Z,928.50
2019-01-10T05:09:16.217Z,928.55
2019-01-10T05:10:16.228Z,928.53
2019-01-10T05:11:16.343Z,928.52
2019-01-10T05:12:16.255Z,928.53
2019-01-10T05:13:16.276Z,928.50
2019-01-10T05:14:16.999Z,928.48
2019-01-10T05:15:16.352Z,928.48
2019-01-10T05:16:16.511Z,928.44
2019-01-10T05:17:16.347Z,928.41
2019-01-10T05:18:16.361Z,928.41
2019-01-10T05:19:16.387Z,928.40
2019-01-10T05:20:16.391Z,928.38
2019-01-10T05:21:16.445Z,928.38
2019-01-10T05:22:16.447Z,928.38
2019-01-10T05:23:16.444Z,928.39
2019-01-10T05:24:16.476Z,928.41
2019-01-10T05:25:16.479Z,928.39
2019-01-10T05:26:16.559Z,928.39
2019-01-10T05:27:16.517Z,928.39
2019-01-10T05:28:16.527Z,928.40
2019-01-10T05:29:16.550Z,928.39
2019-01-10T05:30:16.713Z,928.42
2019-01-10T05:31:16.581Z,928.41
2019-01-10T05:32:16.598Z,928.40
2019-01-10T05:33:16.607Z,928.39
2019-01-10T05:34:16.671Z,928.36
2019-01-10T05:35:16.695Z,928.38
2019-01-10T05:36:16.637Z,928.36
2019-01-10T05:37:16.673Z,928.34
2019-01-10T05:38:16.690Z,928.32
2019-01-10T05:39:16.716Z,928.35
2019-01-10T05:40:16.831Z,928.34
2019-01-10T05:41:16.750Z,928.38
2019-01-10T05:42:16.745Z,928.32
2019-01-10T05:43:16.762Z,928.34
2019-01-10T05:44:26.138Z,928.39
2019-01-10T05:45:16.977Z,928.39
2019-01-10T05:46:16.810Z,928.42
2019-01-10T05:47:16.827Z,928.41
2019-01-10T05:48:16.847Z,928.37
2019-01-10T05:49:16.864Z,928.39
2019-01-10T05:50:17.795Z,928.39
2019-01-10T05:51:16.959Z,928.37
2019-01-10T05:52:16.905Z,928.38
2019-01-10T05:53:16.929Z,928.34
2019-01-10T05:54:16.946Z,928.35
2019-01-10T05:55:16.962Z,928.31
2019-01-10T05:56:17.074Z,928.35
2019-01-10T05:57:16.979Z,928.33
2019-01-10T05:58:17.002Z,928.32
2019-01-10T05:59:17.022Z,928.35
2019-01-10T06:00:17.041Z,928.33
2019-01-10T06:01:17.174Z,928.34
2019-01-10T06:02:17.061Z,928.37
2019-01-10T06:03:17.082Z,928.34
2019-01-10T06:04:17.095Z,928.35
2019-01-10T06:05:17.127Z,928.37
2019-01-10T06:06:17.233Z,928.40
2019-01-10T06:07:17.170Z,928.41
2019-01-10T06:08:17.218Z,928.43
2019-01-10T06:09:17.179Z,928.40
2019-01-10T06:10:17.231Z,928.38
2019-01-10T06:11:17.335Z,928.39
2019-01-10T06:12:17.290Z,928.38
2019-01-10T06:13:17.242Z,928.33
2019-01-10T06:14:17.271Z,928.32
2019-01-10T06:15:17.293Z,928.30
2019-01-10T06:16:17.402Z,928.30
2019-01-10T06:17:17.324Z,928.30
2019-01-10T06:18:17.343Z,928.31
2019-01-10T06:19:26.514Z,928.28
2019-01-10T06:20:17.374Z,928.28
2019-01-10T06:21:17.468Z,928.27
2019-01-10T06:22:17.418Z,928.27
2019-01-10T06:23:18.055Z,928.24
2019-01-10T06:24:17.432Z,928.25
2019-01-10T06:25:17.454Z,928.25
2019-01-10T06:26:17.567Z,928.25
2019-01-10T06:27:17.480Z,928.21
2019-01-10T06:28:17.497Z,928.26
2019-01-10T06:29:17.533Z,928.23
2019-01-10T06:30:17.539Z,928.24
2019-01-10T06:31:17.646Z,928.28
2019-01-10T06:32:17.565Z,928.25
2019-01-10T06:33:17.592Z,928.26
2019-01-10T06:34:17.591Z,928.27
2019-01-10T06:35:17.623Z,928.26
2019-01-10T06:36:17.786Z,928.24
2019-01-10T06:37:17.661Z,928.23
2019-01-10T06:38:17.656Z,928.19
2019-01-10T06:39:19.770Z,928.17
2019-01-10T06:40:17.680Z,928.18
2019-01-10T06:41:17.865Z,928.15
2019-01-10T06:42:17.725Z,928.11
2019-01-10T06:43:17.738Z,928.13
2019-01-10T06:44:17.768Z,928.13
2019-01-10T06:45:17.790Z,928.08
2019-01-10T06:46:17.929Z,928.05
2019-01-10T06:47:17.873Z,928.07
2019-01-10T06:48:17.823Z,928.04
2019-01-10T06:49:17.838Z,928.04
2019-01-10T06:50:17.849Z,928.04
2019-01-10T06:51:17.962Z,928.07
2019-01-10T06:52:17.884Z,928.11
2019-01-10T06:53:17.925Z,928.08
2019-01-10T06:54:17.931Z,928.09
2019-01-10T06:55:17.941Z,928.14
2019-01-10T06:56:18.051Z,928.09
2019-01-10T06:57:17.967Z,928.12
2019-01-10T06:58:17.990Z,928.17
2019-01-10T06:59:18.018Z,928.18
2019-01-10T07:00:18.024Z,928.17
2019-01-10T07:01:18.155Z,928.16
2019-01-10T07:02:18.050Z,928.19
2019-01-10T07:03:18.084Z,928.18
2019-01-10T07:04:18.092Z,928.16
2019-01-10T07:05:18.107Z,928.21
2019-01-10T07:06:18.177Z,928.23
2019-01-10T07:07:18.144Z,928.22
2019-01-10T07:08:18.166Z,928.30
2019-01-10T07:09:18.161Z,928.32
2019-01-10T07:10:18.199Z,928.30
2019-01-10T07:11:18.322Z,928.34
2019-01-10T07:12:18.208Z,928.27
2019-01-10T07:13:18.238Z,928.26
2019-01-10T07:14:18.245Z,928.33
2019-01-10T07:15:18.264Z,928.32
2019-01-10T07:16:18.330Z,928.37
2019-01-10T07:17:18.289Z,928.40
2019-01-10T07:18:18.324Z,928.40
2019-01-10T07:19:18.342Z,928.41
2019-01-10T07:20:18.353Z,928.37
2019-01-10T07:21:18.473Z,928.37
2019-01-10T07:22:18.388Z,928.40
2019-01-10T07:23:18.405Z,928.44
2019-01-10T07:24:18.400Z,928.44
2019-01-10T07:25:18.432Z,928.46
2019-01-10T07:26:18.553Z,928.50
2019-01-10T07:27:18.466Z,928.48
2019-01-10T07:28:18.475Z,928.48
2019-01-10T07:29:18.482Z,928.47
2019-01-10T07:30:18.516Z,928.48
2019-01-10T07:31:18.622Z,928.46
2019-01-10T07:32:18.550Z,928.47
2019-01-10T07:33:18.572Z,928.50
2019-01-10T07:34:18.602Z,928.52
2019-01-10T07:35:18.588Z,928.53
2019-01-10T07:36:18.669Z,928.61
2019-01-10T07:37:18.612Z,928.63
2019-01-10T07:38:18.659Z,928.62
2019-01-10T07:39:18.651Z,928.58
2019-01-10T07:40:18.723Z,928.63
2019-01-10T07:41:18.804Z,928.61
2019-01-10T07:42:18.702Z,928.61
2019-01-10T07:43:18.727Z,928.59
2019-01-10T07:44:18.741Z,928.59
2019-01-10T07:45:18.771Z,928.56
2019-01-10T07:46:18.838Z,928.59
2019-01-10T07:47:18.783Z,928.57
2019-01-10T07:48:18.812Z,928.61
2019-01-10T07:49:18.816Z,928.64
2019-01-10T07:50:18.887Z,928.67
2019-01-10T07:51:19.005Z,928.68
2019-01-10T07:52:18.858Z,928.65
2019-01-10T07:53:18.891Z,928.71
2019-01-10T07:54:18.914Z,928.72
2019-01-10T07:55:18.920Z,928.71
2019-01-10T07:56:18.990Z,928.72
2019-01-10T07:57:18.956Z,928.72
2019-01-10T07:58:18.961Z,928.73
2019-01-10T07:59:19.143Z,928.76
2019-01-10T08:00:19.011Z,928.77
2019-01-10T08:01:19.010Z,928.78
2019-01-10T08:02:19.022Z,928.80
2019-01-10T08:03:19.047Z,928.77
2019-01-10T08:04:19.078Z,928.78
2019-01-10T08:05:19.290Z,928.82
2019-01-10T08:06:19.102Z,928.82
2019-01-10T08:07:19.166Z,928.86
2019-01-10T08:08:19.185Z,928.84
2019-01-10T08:09:19.160Z,928.91
2019-01-10T08:10:19.263Z,928.91
2019-01-10T08:11:19.545Z,928.89
2019-01-10T08:12:19.312Z,928.87
2019-01-10T08:13:19.636Z,928.88
2019-01-10T08:14:19.226Z,928.88
2019-01-10T08:15:19.239Z,928.90
2019-01-10T08:16:19.266Z,928.92
2019-01-10T08:17:19.327Z,928.93
2019-01-10T08:18:19.280Z,928.93
2019-01-10T08:19:19.331Z,928.95
2019-01-10T08:20:19.314Z,928.95
2019-01-10T08:21:19.344Z,928.97
2019-01-10T08:22:27.554Z,928.99
2019-01-10T08:23:19.369Z,928.99
2019-01-10T08:24:19.406Z,928.99
2019-01-10T08:25:19.419Z,928.98
2019-01-10T08:26:19.421Z,929.01
2019-01-10T08:27:19.504Z,929.02
2019-01-10T08:28:19.531Z,929.03
2019-01-10T08:29:19.533Z,928.99
2019-01-10T08:30:19.492Z,929.04
2019-01-10T08:31:19.522Z,929.07
2019-01-10T08:32:19.572Z,929.08
2019-01-10T08:33:19.547Z,929.10
2019-01-10T08:34:19.567Z,929.11
2019-01-10T08:35:19.575Z,929.11
2019-01-10T08:36:19.601Z,929.12
2019-01-10T08:37:19.755Z,929.10
2019-01-10T08:38:19.620Z,929.10
2019-01-10T08:39:19.639Z,929.10
2019-01-10T08:40:19.661Z,929.09
2019-01-10T08:41:19.666Z,929.08
2019-01-10T08:42:19.788Z,929.13
2019-01-10T08:43:19.731Z,929.10
2019-01-10T08:44:19.816Z,929.12
2019-01-10T08:45:21.882Z,929.13
2019-01-10T08:46:19.745Z,929.16
2019-01-10T08:47:19.922Z,929.16
2019-01-10T08:48:19.773Z,929.13
2019-01-10T08:49:19.798Z,929.14
2019-01-10T08:50:19.831Z,929.15
2019-01-10T08:51:19.841Z,929.14
2019-01-10T08:52:19.946Z,929.12
2019-01-10T08:53:21.716Z,929.11
2019-01-10T08:54:19.882Z,929.12
2019-01-10T08:55:19.886Z,929.16
2019-01-10T08:56:19.918Z,929.16
2019-01-10T08:57:19.999Z,929.14
2019-01-10T08:58:19.990Z,929.12
2019-01-10T08:59:19.962Z,929.19
2019-01-10T09:00:20.078Z,929.19
2019-01-10T09:01:19.987Z,929.23
2019-01-10T09:02:20.010Z,929.23
2019-01-10T09:03:20.051Z,929.23
2019-01-10T09:04:20.051Z,929.26
2019-01-10T09:05:20.159Z,929.31
2019-01-10T09:06:20.069Z,929.27
2019-01-10T09:07:20.094Z,929.30
2019-01-10T09:08:20.122Z,929.32
2019-01-10T09:09:20.128Z,929.33
2019-01-10T09:10:20.325Z,929.36
2019-01-10T09:11:20.166Z,929.38
2019-01-10T09:12:20.226Z,929.38
2019-01-10T09:13:20.192Z,929.45
2019-01-10T09:14:20.210Z,929.49
2019-01-10T09:15:25.294Z,929.51
2019-01-10T09:16:20.240Z,929.51
2019-01-10T09:17:20.298Z,929.55
2019-01-10T09:18:20.341Z,929.54
2019-01-10T09:19:20.291Z,929.56
2019-01-10T09:20:20.432Z,929.56
2019-01-10T09:21:20.339Z,929.55
2019-01-10T09:22:20.364Z,929.58
2019-01-10T09:23:20.381Z,929.56
2019-01-10T09:24:20.379Z,929.59
2019-01-10T09:25:20.500Z,929.61
2019-01-10T09:26:20.510Z,929.60
2019-01-10T09:27:20.430Z,929.65
2019-01-10T09:28:20.469Z,929.62
2019-01-10T09:29:20.493Z,929.67
2019-01-10T09:30:20.570Z,929.70
2019-01-10T09:31:20.519Z,929.74
2019-01-10T09:32:20.531Z,929.76
2019-01-10T09:33:20.565Z,929.74
2019-01-10T09:34:24.929Z,929.77
2019-01-10T09:35:20.713Z,929.76
2019-01-10T09:36:20.625Z,929.79
2019-01-10T09:37:20.641Z,929.80
2019-01-10T09:38:20.659Z,929.79
2019-01-10T09:39:20.663Z,929.83
2019-01-10T09:40:20.784Z,929.82
2019-01-10T09:41:20.735Z,929.86
2019-01-10T09:42:20.742Z,929.87
2019-01-10T09:43:20.745Z,929.90
2019-01-10T09:44:20.774Z,929.92
2019-01-10T09:45:20.943Z,929.95
2019-01-10T09:46:20.814Z,929.96
2019-01-10T09:47:20.892Z,929.95
2019-01-10T09:48:20.849Z,930.01
2019-01-10T09:49:20.883Z,930.03
2019-01-10T09:50:20.991Z,930.04
2019-01-10T09:51:20.905Z,930.04
2019-01-10T09:52:21.010Z,930.06
2019-01-10T09:53:20.958Z,930.08
2019-01-10T09:54:20.991Z,930.06
2019-01-10T09:55:21.136Z,930.12
2019-01-10T09:56:21.074Z,930.11
2019-01-10T09:57:21.043Z,930.11
2019-01-10T09:58:21.093Z,930.07
2019-01-10T09:59:21.097Z,930.07
2019-01-10T10:00:21.202Z,930.05
2019-01-10T10:01:21.128Z,930.08
2019-01-10T10:02:21.160Z,930.13
2019-01-10T10:03:21.608Z,930.12
2019-01-10T10:12:21.366Z,930.18
2019-01-10T10:13:21.416Z,930.20
2019-01-10T10:14:21.416Z,930.22
2019-01-10T10:15:21.598Z,930.20
2019-01-10T10:16:21.509Z,930.24
2019-01-10T10:17:21.500Z,930.23
2019-01-10T10:18:21.527Z,930.25
2019-01-10T10:19:21.552Z,930.19
2019-01-10T10:20:21.704Z,930.22
2019-01-10T10:21:21.580Z,930.23
2019-01-10T10:22:21.591Z,930.18
2019-01-10T10:23:26.693Z,930.19
2019-01-10T10:24:21.650Z,930.18
2019-01-10T10:25:21.720Z,930.18
2019-01-10T10:26:21.703Z,930.13
2019-01-10T10:27:21.710Z,930.14
2019-01-10T10:28:21.748Z,930.18
2019-01-10T10:29:21.756Z,930.18
2019-01-10T10:30:21.871Z,930.16
2019-01-10T10:31:21.864Z,930.17
2019-01-10T10:32:21.840Z,930.17
2019-01-10T10:33:21.880Z,930.17
2019-01-10T10:34:21.884Z,930.16
2019-01-10T10:35:21.998Z,930.24
2019-01-10T10:36:21.928Z,930.23
2019-01-10T10:37:21.944Z,930.20
2019-01-10T10:38:21.966Z,930.21
2019-01-10T10:39:22.010Z,930.23
2019-01-10T10:40:22.065Z,930.27
2019-01-10T10:41:22.040Z,930.25
2019-01-10T10:42:22.073Z,930.27
2019-01-10T10:43:22.097Z,930.29
2019-01-10T10:44:22.226Z,930.30
2019-01-10T10:45:22.197Z,930.27
2019-01-10T10:46:22.179Z,930.29
2019-01-10T10:47:22.196Z,930.27
2019-01-10T10:48:22.222Z,930.32
2019-01-10T10:49:22.404Z,930.33
2019-01-10T10:50:22.271Z,930.32
2019-01-10T10:51:22.293Z,930.33
2019-01-10T10:52:22.328Z,930.34
2019-01-10T10:53:22.348Z,930.35
2019-01-10T10:54:22.482Z,930.37
2019-01-10T10:55:22.387Z,930.36
2019-01-10T10:56:22.460Z,930.29
2019-01-10T10:58:22.473Z,930.36
2019-01-10T11:00:22.502Z,930.35
2019-01-10T11:01:22.552Z,930.41
2019-01-10T11:02:22.571Z,930.42
2019-01-10T11:03:22.586Z,930.40
2019-01-10T11:05:22.644Z,930.46
2019-01-10T11:06:22.672Z,930.46
2019-01-10T11:07:22.861Z,930.44
2019-01-10T11:08:22.712Z,930.48
2019-01-10T11:09:22.740Z,930.47
2019-01-10T11:10:22.786Z,930.52
2019-01-10T11:11:22.842Z,930.54
2019-01-10T11:12:22.894Z,930.57
2019-01-10T11:23:23.120Z,930.74
2019-01-10T11:24:23.296Z,930.74
2019-01-10T11:25:23.188Z,930.74
2019-01-10T11:26:23.204Z,930.77
2019-01-10T11:27:23.223Z,930.79
2019-01-10T11:28:23.246Z,930.82
2019-01-10T11:29:23.376Z,930.81
2019-01-10T11:30:23.303Z,930.62
2019-01-10T11:31:23.329Z,930.78
2019-01-10T11:32:23.364Z,930.81
2019-01-10T11:33:23.392Z,930.80
2019-01-10T11:34:23.520Z,930.71
2019-01-10T11:35:23.446Z,930.76
2019-01-10T11:36:23.463Z,930.72
2019-01-10T11:37:23.537Z,930.62
2019-01-10T11:38:23.533Z,930.83
2019-01-10T11:39:23.627Z,930.76
2019-01-10T11:40:23.584Z,930.78
2019-01-10T11:41:23.604Z,930.79
2019-01-10T11:42:23.622Z,930.83
2019-01-10T11:43:23.657Z,930.79
2019-01-10T11:44:23.742Z,930.79
2019-01-10T11:45:23.702Z,930.83
2019-01-10T11:46:23.735Z,930.87
2019-01-10T11:47:23.744Z,930.94
2019-01-10T11:48:23.790Z,931.04
2019-01-10T11:49:23.906Z,931.44
2019-01-10T11:50:23.883Z,931.70
2019-01-10T11:51:23.876Z,931.37
2019-01-10T11:52:23.877Z,931.06
2019-01-10T11:53:24.011Z,930.97
2019-01-10T11:54:24.090Z,930.90
2019-01-10T11:55:23.980Z,930.99
2019-01-10T11:56:23.991Z,930.98
2019-01-10T11:57:24.042Z,931.01
2019-01-10T11:58:24.104Z,931.09
2019-01-10T11:59:24.143Z,931.11
2019-01-10T12:00:24.097Z,931.15
2019-01-10T12:01:24.131Z,931.21
2019-01-10T12:02:24.168Z,931.36
2019-01-10T12:03:24.171Z,931.74
2019-01-10T12:04:24.410Z,931.99
2019-01-10T12:05:24.238Z,931.98
2019-01-10T12:06:24.281Z,932.11
2019-01-10T12:07:24.291Z,932.02
2019-01-10T12:08:24.333Z,931.70
2019-01-10T12:09:24.461Z,931.30
2019-01-10T12:10:24.369Z,931.10
2019-01-10T12:11:24.407Z,930.93
2019-01-10T12:12:24.427Z,931.13
2019-01-10T12:13:24.477Z,931.14
2019-01-10T12:14:24.569Z,931.14
2019-01-10T12:15:24.513Z,931.13
2019-01-10T12:16:28.668Z,931.15
2019-01-10T12:17:24.584Z,931.10
2019-01-10T12:18:24.595Z,931.17
2019-01-10T12:19:24.683Z,931.11
2019-01-10T12:20:24.639Z,931.18
2019-01-10T12:21:24.672Z,931.19
2019-01-10T12:22:24.709Z,931.55
2019-01-10T12:23:24.725Z,932.02
2019-01-10T12:24:24.915Z,932.16
2019-01-10T12:25:24.805Z,932.14
2019-01-10T12:26:24.812Z,932.19
2019-01-10T12:27:24.853Z,932.28
2019-01-10T12:28:26.633Z,932.08
2019-01-10T12:29:24.993Z,931.70
2019-01-10T12:30:24.938Z,931.39
2019-01-10T12:31:24.987Z,931.28
2019-01-10T12:32:25.001Z,931.23
2019-01-10T12:33:25.019Z,931.24
2019-01-10T12:34:25.052Z,931.24
2019-01-10T12:35:25.228Z,931.47
2019-01-10T12:36:25.103Z,931.82
2019-01-10T12:37:25.146Z,932.19
2019-01-10T12:38:25.159Z,932.24
2019-01-10T12:39:25.184Z,932.23
2019-01-10T12:40:25.308Z,932.28
2019-01-10T12:41:25.271Z,932.29
2019-01-10T12:42:25.284Z,932.29
2019-01-10T12:43:25.288Z,932.22
2019-01-10T12:44:25.322Z,932.37
2019-01-10T12:45:25.514Z,932.36
2019-01-10T12:46:25.431Z,932.44
2019-01-10T12:47:25.409Z,932.32
2019-01-10T12:48:25.435Z,932.31
2019-01-10T12:49:25.482Z,932.28